Terminal Aerodrome Forecast
Issued by NWS

Home | Current Version | Previous Version | Text Only | Print | Product List | Glossary On
Versions: 1 2 3 4 5 6 7 8 9 10 11 12 13 14
000
FTUS44 KLIX 300520
TAFMSY
TAF
KMSY 300520Z 3006/3106 VRB05KT P6SM FEW030 SCT200
     FM301700 VRB03KT P6SM SCT040 SCT200
      TEMPO 3019/3023 2SM TSRA BKN040CB
     FM310000 VRB05KT P6SM SCT050 SCT200=

USA.gov is the U.S. government's official web portal to all federal, state and local government web resources and services.